CST,Max TemperatureF,Mean TemperatureF,Min TemperatureF,Max Dew PointF,MeanDew PointF,Min DewpointF,Max Humidity, Mean Humidity, Min Humidity, Max Sea Level PressureIn, Mean Sea Level PressureIn, Min Sea Level PressureIn, Max VisibilityMiles, Mean VisibilityMiles, Min VisibilityMiles, Max Wind SpeedMPH, Mean Wind SpeedMPH, Max Gust SpeedMPH,PrecipitationIn, CloudCover, Events, WindDirDegrees
2012-2-1,78,66,53,59,53,43,94,72,31,30.15,30.09,30.02,10,8,4,10,2,,0.00,4,,322
2012-2-2,70,62,54,63,56,45,87,79,64,30.13,30.03,29.94,10,8,4,12,6,24,0.00,5,,120
2012-2-3,73,68,64,63,62,60,94,86,64,29.99,29.94,29.89,10,7,2,14,7,20,0.08,7,Rain,165
2012-2-4,64,56,46,52,39,33,72,58,41,30.31,30.16,30.02,10,10,2,15,12,26,0.13,7,Rain-Thunderstorm,355
2012-2-5,50,44,39,33,32,31,73,61,48,30.41,30.34,30.30,10,10,10,16,11,24,0.00,7,Rain,358
2012-2-6,52,44,37,38,34,31,79,64,49,30.37,30.28,30.18,10,10,9,7,4,,0.00,7,,39
2012-2-7,64,50,37,40,38,34,86,59,41,30.35,30.23,30.17,10,9,5,12,3,20,0.00,3,,65
2012-2-8,52,44,37,38,36,33,87,71,58,30.51,30.40,30.35,10,8,6,10,8,,0.00,3,,12
2012-2-9,59,48,37,42,38,34,89,70,46,30.35,30.23,30.12,10,7,2,10,4,,0.00,3,,151
2012-2-10,63,54,44,46,41,31,93,71,30,30.35,30.17,30.06,10,7,4,18,7,23,0.01,5,Rain,326
2012-2-11,46,38,30,32,21,14,82,52,30,30.57,30.45,30.33,10,9,6,15,11,24,0.00,0,,36
2012-2-12,37,31,25,30,20,13,79,63,41,30.57,30.41,30.17,10,10,3,12,8,17,0.04,5,Rain,77
2012-2-13,66,50,35,50,39,30,100,87,46,30.17,30.02,29.84,10,6,1,9,4,,0.14,6,Rain,144
2012-2-14,75,57,39,59,50,37,90,74,37,29.96,29.90,29.81,10,9,5,15,5,25,0.00,3,,169
2012-2-15,75,64,52,63,55,37,100,79,26,30.06,29.94,29.85,10,6,1,16,6,21,0.00,4,Rain,268
2012-2-16,60,53,46,43,40,28,80,63,34,30.28,30.16,30.05,10,8,2,14,8,21,0.00,3,Rain,23
2012-2-17,57,52,48,52,49,44,96,89,77,30.12,30.03,29.90,8,4,2,15,10,21,0.22,8,Rain-Thunderstorm,50
2012-2-18,54,50,46,52,48,43,100,90,82,30.10,29.93,29.81,10,7,1,16,11,24,1.44,8,Rain-Thunderstorm,348
2012-2-19,60,52,43,45,42,39,93,75,53,30.17,30.10,30.01,10,9,7,12,5,,0.00,3,,25
2012-2-20,68,57,46,52,48,43,93,80,52,30.14,30.03,29.96,10,8,5,14,7,22,0.00,4,,178
2012-2-21,73,60,46,54,43,32,83,61,44,30.20,30.10,29.96,10,8,5,14,4,17,0.00,3,,185
2012-2-22,82,68,55,58,47,30,93,58,15,29.98,29.82,29.68,10,9,5,16,6,24,0.00,2,,236
2012-2-23,84,72,60,47,39,26,58,36,12,29.80,29.61,29.54,10,10,10,20,8,32,0.00,0,,236
2012-2-24,60,52,39,33,21,15,55,31,18,30.40,30.19,29.86,10,10,10,20,13,37,0.00,0,,15
2012-2-25,61,48,34,29,21,11,67,41,14,30.44,30.33,30.20,10,10,9,13,5,22,0.00,0,,171
2012-2-26,66,52,37,49,41,29,77,64,47,30.19,30.11,30.03,10,10,10,16,7,24,0.00,2,,178
2012-2-27,66,60,55,58,55,49,100,84,66,30.27,30.19,30.11,10,6,0,10,6,18,0.00,8,Fog-Rain,102
2012-2-28,75,68,60,65,61,57,100,86,60,30.16,30.03,29.88,10,5,0,24,9,37,0.00,7,Fog,164
2012-2-29,75,65,52,64,48,25,94,59,15,30.08,29.99,29.93,10,8,3,10,6,16,0.00,5,Rain,24